sensor_id;sensor_type;location;lat;lon;timestamp;temperature;humidity
262;DHT22;114;48.260;10.988;2023-03-26T00:01:27;6.50;23.00
262;DHT22;114;48.260;10.988;2023-03-26T00:03:54;6.50;23.00
262;DHT22;114;48.260;10.988;2023-03-26T00:06:27;6.50;22.00
262;DHT22;114;48.260;10.988;2023-03-26T00:08:55;6.50;22.00
262;DHT22;114;48.260;10.988;2023-03-26T00:11:23;6.50;22.10
262;DHT22;114;48.260;10.988;2023-03-26T00:13:49;6.50;22.00
262;DHT22;114;48.260;10.988;2023-03-26T00:16:18;6.50;23.10
262;DHT22;114;48.260;10.988;2023-03-26T00:18:45;6.50;22.60
262;DHT22;114;48.260;10.988;2023-03-26T00:21:14;6.50;22.40
262;DHT22;114;48.260;10.988;2023-03-26T00:23:40;6.50;22.40
262;DHT22;114;48.260;10.988;2023-03-26T00:26:07;6.60;22.10
262;DHT22;114;48.260;10.988;2023-03-26T00:28:38;6.50;21.90
262;DHT22;114;48.260;10.988;2023-03-26T00:31:07;6.50;22.00
262;DHT22;114;48.260;10.988;2023-03-26T00:33:33;6.50;22.00
262;DHT22;114;48.260;10.988;2023-03-26T00:36:04;6.50;22.20
262;DHT22;114;48.260;10.988;2023-03-26T00:38:31;6.50;22.60
262;DHT22;114;48.260;10.988;2023-03-26T00:41:05;6.40;23.70
262;DHT22;114;48.260;10.988;2023-03-26T00:43:33;6.40;23.70
262;DHT22;114;48.260;10.988;2023-03-26T00:45:59;6.50;23.20
262;DHT22;114;48.260;10.988;2023-03-26T00:48:27;6.40;23.30
262;DHT22;114;48.260;10.988;2023-03-26T00:50:54;6.40;23.90
262;DHT22;114;48.260;10.988;2023-03-26T00:53:21;6.40;23.90
262;DHT22;114;48.260;10.988;2023-03-26T00:55:47;6.40;24.80
262;DHT22;114;48.260;10.988;2023-03-26T00:58:14;6.30;25.80
262;DHT22;114;48.260;10.988;2023-03-26T01:00:52;6.40;25.90
262;DHT22;114;48.260;10.988;2023-03-26T01:03:22;6.30;25.80
262;DHT22;114;48.260;10.988;2023-03-26T01:05:51;6.40;25.90
262;DHT22;114;48.260;10.988;2023-03-26T01:11:08;6.40;25.60
262;DHT22;114;48.260;10.988;2023-03-26T01:13:40;6.40;26.70
262;DHT22;114;48.260;10.988;2023-03-26T01:16:14;6.40;26.50
262;DHT22;114;48.260;10.988;2023-03-26T01:18:45;6.30;27.20
262;DHT22;114;48.260;10.988;2023-03-26T01:21:11;6.20;28.20
262;DHT22;114;48.260;10.988;2023-03-26T01:23:47;6.20;28.50
262;DHT22;114;48.260;10.988;2023-03-26T01:29:00;6.10;29.70
262;DHT22;114;48.260;10.988;2023-03-26T01:31:34;6.00;30.00
262;DHT22;114;48.260;10.988;2023-03-26T01:36:56;5.90;32.90
262;DHT22;114;48.260;10.988;2023-03-26T01:39:28;5.80;34.00
262;DHT22;114;48.260;10.988;2023-03-26T01:42:10;5.80;35.90
262;DHT22;114;48.260;10.988;2023-03-26T01:44:56;5.70;36.50
262;DHT22;114;48.260;10.988;2023-03-26T01:47:24;5.70;37.90
262;DHT22;114;48.260;10.988;2023-03-26T01:49:50;5.70;38.20
262;DHT22;114;48.260;10.988;2023-03-26T01:52:20;5.60;38.70
262;DHT22;114;48.260;10.988;2023-03-26T01:54:49;5.70;38.80
262;DHT22;114;48.260;10.988;2023-03-26T01:57:25;5.60;38.70
262;DHT22;114;48.260;10.988;2023-03-26T02:00:02;5.70;38.80
262;DHT22;114;48.260;10.988;2023-03-26T02:05:16;5.70;36.80
262;DHT22;114;48.260;10.988;2023-03-26T02:08:23;5.70;37.70
262;DHT22;114;48.260;10.988;2023-03-26T02:10:55;5.60;39.00
262;DHT22;114;48.260;10.988;2023-03-26T02:13:22;5.60;38.80
262;DHT22;114;48.260;10.988;2023-03-26T02:15:56;5.70;38.80
262;DHT22;114;48.260;10.988;2023-03-26T02:18:22;5.70;38.80
262;DHT22;114;48.260;10.988;2023-03-26T02:20:50;5.60;38.70
262;DHT22;114;48.260;10.988;2023-03-26T02:23:20;5.60;38.70
262;DHT22;114;48.260;10.988;2023-03-26T02:25:46;5.50;40.80
262;DHT22;114;48.260;10.988;2023-03-26T02:28:12;5.40;42.00
262;DHT22;114;48.260;10.988;2023-03-26T02:30:38;5.40;43.00
262;DHT22;114;48.260;10.988;2023-03-26T02:33:04;5.30;43.80
262;DHT22;114;48.260;10.988;2023-03-26T02:35:30;5.30;43.80
262;DHT22;114;48.260;10.988;2023-03-26T02:37:55;5.20;44.00
262;DHT22;114;48.260;10.988;2023-03-26T02:40:21;5.20;45.40
262;DHT22;114;48.260;10.988;2023-03-26T02:42:48;5.10;47.80
262;DHT22;114;48.260;10.988;2023-03-26T02:45:14;5.00;48.10
262;DHT22;114;48.260;10.988;2023-03-26T02:47:40;5.00;50.30
262;DHT22;114;48.260;10.988;2023-03-26T02:50:06;4.90;51.20
262;DHT22;114;48.260;10.988;2023-03-26T02:52:33;4.90;51.60
262;DHT22;114;48.260;10.988;2023-03-26T02:55:00;4.80;52.50
262;DHT22;114;48.260;10.988;2023-03-26T02:57:26;4.80;53.30
262;DHT22;114;48.260;10.988;2023-03-26T02:59:52;4.80;55.20
262;DHT22;114;48.260;10.988;2023-03-26T03:02:18;4.70;54.50
262;DHT22;114;48.260;10.988;2023-03-26T03:04:44;4.70;54.10
262;DHT22;114;48.260;10.988;2023-03-26T03:07:10;4.70;55.20
262;DHT22;114;48.260;10.988;2023-03-26T03:09:39;4.60;56.60
262;DHT22;114;48.260;10.988;2023-03-26T03:12:05;4.50;57.30
262;DHT22;114;48.260;10.988;2023-03-26T03:14:31;4.50;58.50
262;DHT22;114;48.260;10.988;2023-03-26T03:16:56;4.50;59.90
262;DHT22;114;48.260;10.988;2023-03-26T03:19:22;4.40;60.30
262;DHT22;114;48.260;10.988;2023-03-26T03:21:48;4.40;61.20
262;DHT22;114;48.260;10.988;2023-03-26T03:24:14;4.40;62.80
262;DHT22;114;48.260;10.988;2023-03-26T03:26:42;4.40;63.20
262;DHT22;114;48.260;10.988;2023-03-26T03:29:10;4.30;63.70
262;DHT22;114;48.260;10.988;2023-03-26T03:31:37;4.40;63.80
262;DHT22;114;48.260;10.988;2023-03-26T03:34:03;4.30;64.10
262;DHT22;114;48.260;10.988;2023-03-26T03:36:29;4.30;65.30
262;DHT22;114;48.260;10.988;2023-03-26T03:38:57;4.40;64.40
262;DHT22;114;48.260;10.988;2023-03-26T03:41:27;4.30;64.10
262;DHT22;114;48.260;10.988;2023-03-26T03:43:53;4.40;65.00
262;DHT22;114;48.260;10.988;2023-03-26T03:46:19;4.50;62.20
262;DHT22;114;48.260;10.988;2023-03-26T03:48:45;4.50;61.00
262;DHT22;114;48.260;10.988;2023-03-26T03:51:15;4.50;60.90
262;DHT22;114;48.260;10.988;2023-03-26T03:53:41;4.50;61.10
262;DHT22;114;48.260;10.988;2023-03-26T03:56:07;4.60;62.10
262;DHT22;114;48.260;10.988;2023-03-26T03:58:35;4.50;62.60
262;DHT22;114;48.260;10.988;2023-03-26T04:01:00;4.50;63.30
262;DHT22;114;48.260;10.988;2023-03-26T04:03:29;4.50;63.90
262;DHT22;114;48.260;10.988;2023-03-26T04:05:54;4.50;64.50
262;DHT22;114;48.260;10.988;2023-03-26T04:08:21;4.50;64.70
262;DHT22;114;48.260;10.988;2023-03-26T04:10:48;4.60;65.70
262;DHT22;114;48.260;10.988;2023-03-26T04:13:14;4.50;66.00
262;DHT22;114;48.260;10.988;2023-03-26T04:15:41;4.60;66.90
262;DHT22;114;48.260;10.988;2023-03-26T04:18:08;4.60;67.90
262;DHT22;114;48.260;10.988;2023-03-26T04:20:39;4.80;68.40
262;DHT22;114;48.260;10.988;2023-03-26T04:23:07;4.80;66.80
262;DHT22;114;48.260;10.988;2023-03-26T04:25:42;4.90;66.40
262;DHT22;114;48.260;10.988;2023-03-26T04:28:08;4.90;66.10
262;DHT22;114;48.260;10.988;2023-03-26T04:30:36;5.00;65.20
262;DHT22;114;48.260;10.988;2023-03-26T04:33:03;5.00;65.10
262;DHT22;114;48.260;10.988;2023-03-26T04:35:31;5.00;65.50
262;DHT22;114;48.260;10.988;2023-03-26T04:38:02;5.00;65.50
262;DHT22;114;48.260;10.988;2023-03-26T04:40:32;5.00;65.30
262;DHT22;114;48.260;10.988;2023-03-26T04:43:00;5.10;65.10
262;DHT22;114;48.260;10.988;2023-03-26T04:45:28;5.20;66.30
262;DHT22;114;48.260;10.988;2023-03-26T04:47:58;5.20;65.20
262;DHT22;114;48.260;10.988;2023-03-26T04:50:24;5.20;64.80
262;DHT22;114;48.260;10.988;2023-03-26T04:52:53;5.30;63.90
262;DHT22;114;48.260;10.988;2023-03-26T04:55:46;5.30;63.00
262;DHT22;114;48.260;10.988;2023-03-26T04:58:14;5.30;62.00
262;DHT22;114;48.260;10.988;2023-03-26T05:00:42;5.30;62.20
262;DHT22;114;48.260;10.988;2023-03-26T05:03:10;5.30;61.70
262;DHT22;114;48.260;10.988;2023-03-26T05:05:36;5.30;61.20
262;DHT22;114;48.260;10.988;2023-03-26T05:08:02;5.40;60.90
262;DHT22;114;48.260;10.988;2023-03-26T05:10:28;5.40;60.20
262;DHT22;114;48.260;10.988;2023-03-26T05:12:54;5.40;59.80
262;DHT22;114;48.260;10.988;2023-03-26T05:15:20;5.50;58.90
262;DHT22;114;48.260;10.988;2023-03-26T05:17:46;5.50;58.10
262;DHT22;114;48.260;10.988;2023-03-26T05:20:22;5.50;57.60
262;DHT22;114;48.260;10.988;2023-03-26T05:22:48;5.60;56.90
262;DHT22;114;48.260;10.988;2023-03-26T05:25:15;5.60;57.40
262;DHT22;114;48.260;10.988;2023-03-26T05:27:42;5.60;57.50
262;DHT22;114;48.260;10.988;2023-03-26T05:30:08;5.60;57.80
262;DHT22;114;48.260;10.988;2023-03-26T05:32:36;5.60;57.50
262;DHT22;114;48.260;10.988;2023-03-26T05:35:02;5.70;57.50
262;DHT22;114;48.260;10.988;2023-03-26T05:37:30;5.70;57.00
262;DHT22;114;48.260;10.988;2023-03-26T05:39:57;5.80;57.60
262;DHT22;114;48.260;10.988;2023-03-26T05:42:23;5.80;56.10
262;DHT22;114;48.260;10.988;2023-03-26T05:44:49;5.80;56.70
262;DHT22;114;48.260;10.988;2023-03-26T05:47:15;5.90;56.00
262;DHT22;114;48.260;10.988;2023-03-26T05:49:40;6.00;54.80
262;DHT22;114;48.260;10.988;2023-03-26T05:52:06;6.10;53.70
262;DHT22;114;48.260;10.988;2023-03-26T05:54:32;6.20;54.30
262;DHT22;114;48.260;10.988;2023-03-26T05:56:58;6.20;52.70
262;DHT22;114;48.260;10.988;2023-03-26T05:59:25;6.30;53.00
262;DHT22;114;48.260;10.988;2023-03-26T06:01:50;6.30;51.90
262;DHT22;114;48.260;10.988;2023-03-26T06:04:19;6.50;50.00
262;DHT22;114;48.260;10.988;2023-03-26T06:06:45;6.60;46.60
262;DHT22;114;48.260;10.988;2023-03-26T06:09:11;6.60;41.60
262;DHT22;114;48.260;10.988;2023-03-26T06:11:38;6.80;34.60
262;DHT22;114;48.260;10.988;2023-03-26T06:14:05;6.90;34.00
262;DHT22;114;48.260;10.988;2023-03-26T06:16:31;6.90;34.00
262;DHT22;114;48.260;10.988;2023-03-26T06:18:57;7.10;29.60
262;DHT22;114;48.260;10.988;2023-03-26T06:21:27;7.20;25.00
262;DHT22;114;48.260;10.988;2023-03-26T06:23:53;7.30;21.20
262;DHT22;114;48.260;10.988;2023-03-26T06:26:19;7.40;17.80
262;DHT22;114;48.260;10.988;2023-03-26T06:28:46;7.40;17.60
262;DHT22;114;48.260;10.988;2023-03-26T06:31:11;7.50;15.80
262;DHT22;114;48.260;10.988;2023-03-26T06:33:37;7.70;10.50
262;DHT22;114;48.260;10.988;2023-03-26T06:36:03;7.70;8.10
262;DHT22;114;48.260;10.988;2023-03-26T06:38:30;7.80;9.30
262;DHT22;114;48.260;10.988;2023-03-26T06:41:05;7.70;12.50
262;DHT22;114;48.260;10.988;2023-03-26T06:43:31;7.70;13.70
262;DHT22;114;48.260;10.988;2023-03-26T06:45:59;7.60;15.40
262;DHT22;114;48.260;10.988;2023-03-26T06:48:25;7.60;18.70
262;DHT22;114;48.260;10.988;2023-03-26T06:50:51;7.50;20.80
262;DHT22;114;48.260;10.988;2023-03-26T06:53:17;7.40;24.00
262;DHT22;114;48.260;10.988;2023-03-26T06:55:42;7.40;26.50
262;DHT22;114;48.260;10.988;2023-03-26T06:58:10;7.40;28.50
262;DHT22;114;48.260;10.988;2023-03-26T07:00:36;7.40;28.00
262;DHT22;114;48.260;10.988;2023-03-26T07:03:03;7.40;29.80
262;DHT22;114;48.260;10.988;2023-03-26T07:05:29;7.40;28.60
262;DHT22;114;48.260;10.988;2023-03-26T07:07:55;7.40;28.60
262;DHT22;114;48.260;10.988;2023-03-26T07:10:21;7.40;28.70
262;DHT22;114;48.260;10.988;2023-03-26T07:12:46;7.40;30.30
262;DHT22;114;48.260;10.988;2023-03-26T07:15:12;7.40;32.70
262;DHT22;114;48.260;10.988;2023-03-26T07:17:38;7.40;33.40
262;DHT22;114;48.260;10.988;2023-03-26T07:20:05;7.40;32.70
262;DHT22;114;48.260;10.988;2023-03-26T07:22:31;7.30;34.10
262;DHT22;114;48.260;10.988;2023-03-26T07:24:57;7.30;37.60
262;DHT22;114;48.260;10.988;2023-03-26T07:35:36;7.40;51.00
262;DHT22;114;48.260;10.988;2023-03-26T07:38:25;7.30;56.50
262;DHT22;114;48.260;10.988;2023-03-26T07:44:05;7.30;63.70
262;DHT22;114;48.260;10.988;2023-03-26T07:46:36;7.40;64.50
262;DHT22;114;48.260;10.988;2023-03-26T07:49:04;7.40;66.30
262;DHT22;114;48.260;10.988;2023-03-26T07:51:31;7.40;67.20
262;DHT22;114;48.260;10.988;2023-03-26T07:53:57;7.30;66.60
262;DHT22;114;48.260;10.988;2023-03-26T07:56:58;7.30;63.50
262;DHT22;114;48.260;10.988;2023-03-26T08:05:39;7.40;67.00
262;DHT22;114;48.260;10.988;2023-03-26T08:08:47;7.50;67.40
262;DHT22;114;48.260;10.988;2023-03-26T08:17:23;7.50;66.10
262;DHT22;114;48.260;10.988;2023-03-26T08:22:40;7.70;66.20
262;DHT22;114;48.260;10.988;2023-03-26T08:31:36;7.80;63.90
262;DHT22;114;48.260;10.988;2023-03-26T08:34:03;7.70;63.40
262;DHT22;114;48.260;10.988;2023-03-26T08:36:29;7.70;64.20
262;DHT22;114;48.260;10.988;2023-03-26T08:38:55;7.60;65.70
262;DHT22;114;48.260;10.988;2023-03-26T08:41:58;7.60;66.50
262;DHT22;114;48.260;10.988;2023-03-26T08:44:57;7.70;67.50
262;DHT22;114;48.260;10.988;2023-03-26T09:02:11;7.70;66.20
262;DHT22;114;48.260;10.988;2023-03-26T09:07:40;7.70;63.80
262;DHT22;114;48.260;10.988;2023-03-26T09:10:58;7.60;63.80
262;DHT22;114;48.260;10.988;2023-03-26T09:24:51;7.60;74.70
262;DHT22;114;48.260;10.988;2023-03-26T09:38:43;7.60;78.50
262;DHT22;114;48.260;10.988;2023-03-26T10:00:27;7.80;70.70
262;DHT22;114;48.260;10.988;2023-03-26T10:11:17;8.60;56.30
262;DHT22;114;48.260;10.988;2023-03-26T10:19:40;8.50;52.60
262;DHT22;114;48.260;10.988;2023-03-26T10:33:08;8.10;45.10
262;DHT22;114;48.260;10.988;2023-03-26T10:35:51;8.10;44.20
262;DHT22;114;48.260;10.988;2023-03-26T10:51:57;8.30;43.10
262;DHT22;114;48.260;10.988;2023-03-26T10:54:55;8.30;44.30
262;DHT22;114;48.260;10.988;2023-03-26T11:00:20;8.50;36.60
262;DHT22;114;48.260;10.988;2023-03-26T11:08:23;8.70;28.30
262;DHT22;114;48.260;10.988;2023-03-26T11:11:28;9.10;27.60
262;DHT22;114;48.260;10.988;2023-03-26T11:14:09;8.90;31.60
262;DHT22;114;48.260;10.988;2023-03-26T11:19:28;9.10;29.80
262;DHT22;114;48.260;10.988;2023-03-26T11:25:25;9.10;21.10
262;DHT22;114;48.260;10.988;2023-03-26T11:28:12;9.20;27.00
262;DHT22;114;48.260;10.988;2023-03-26T11:30:50;9.30;26.10
262;DHT22;114;48.260;10.988;2023-03-26T11:33:21;9.30;24.80
262;DHT22;114;48.260;10.988;2023-03-26T11:35:52;9.00;25.90
262;DHT22;114;48.260;10.988;2023-03-26T11:38:28;9.20;23.80
262;DHT22;114;48.260;10.988;2023-03-26T11:40:58;9.40;23.90
262;DHT22;114;48.260;10.988;2023-03-26T11:43:35;9.60;21.40
262;DHT22;114;48.260;10.988;2023-03-26T11:46:05;10.70;12.20
262;DHT22;114;48.260;10.988;2023-03-26T11:48:38;11.40;2.50
262;DHT22;114;48.260;10.988;2023-03-26T11:51:08;11.60;3.90
262;DHT22;114;48.260;10.988;2023-03-26T11:53:35;11.80;1.00
262;DHT22;114;48.260;10.988;2023-03-26T11:56:04;11.20;1.00
262;DHT22;114;48.260;10.988;2023-03-26T12:01:40;11.70;1.00
262;DHT22;114;48.260;10.988;2023-03-26T12:04:12;12.60;1.00
262;DHT22;114;48.260;10.988;2023-03-26T12:06:49;12.40;1.00
262;DHT22;114;48.260;10.988;2023-03-26T12:09:17;12.00;1.00
262;DHT22;114;48.260;10.988;2023-03-26T12:11:43;11.30;1.20
262;DHT22;114;48.260;10.988;2023-03-26T12:14:16;11.10;5.50
262;DHT22;114;48.260;10.988;2023-03-26T12:17:05;11.40;1.00
262;DHT22;114;48.260;10.988;2023-03-26T12:19:41;11.30;1.40
262;DHT22;114;48.260;10.988;2023-03-26T12:22:36;11.60;3.90
262;DHT22;114;48.260;10.988;2023-03-26T12:27:48;11.20;2.80
262;DHT22;114;48.260;10.988;2023-03-26T12:30:28;11.10;3.60
262;DHT22;114;48.260;10.988;2023-03-26T12:33:15;11.00;3.50
262;DHT22;114;48.260;10.988;2023-03-26T12:35:42;11.10;4.20
262;DHT22;114;48.260;10.988;2023-03-26T12:38:22;10.90;3.40
262;DHT22;114;48.260;10.988;2023-03-26T12:41:09;10.60;4.80
262;DHT22;114;48.260;10.988;2023-03-26T12:43:50;10.60;3.20
262;DHT22;114;48.260;10.988;2023-03-26T12:46:28;10.70;4.40
262;DHT22;114;48.260;10.988;2023-03-26T12:48:58;10.70;4.60
262;DHT22;114;48.260;10.988;2023-03-26T12:54:37;10.60;5.20
262;DHT22;114;48.260;10.988;2023-03-26T12:57:21;10.40;5.00
262;DHT22;114;48.260;10.988;2023-03-26T13:02:41;9.40;5.00
262;DHT22;114;48.260;10.988;2023-03-26T13:05:18;9.00;6.60
262;DHT22;114;48.260;10.988;2023-03-26T13:18:56;8.60;7.20
262;DHT22;114;48.260;10.988;2023-03-26T13:30:02;7.80;18.60
262;DHT22;114;48.260;10.988;2023-03-26T13:35:28;5.80;40.90
262;DHT22;114;48.260;10.988;2023-03-26T13:38:12;5.50;99.90
262;DHT22;114;48.260;10.988;2023-03-26T13:43:32;5.70;47.80
262;DHT22;114;48.260;10.988;2023-03-26T13:51:32;6.80;32.90
262;DHT22;114;48.260;10.988;2023-03-26T13:54:19;7.10;33.40
262;DHT22;114;48.260;10.988;2023-03-26T13:56:57;7.20;29.50
262;DHT22;114;48.260;10.988;2023-03-26T13:59:43;7.30;32.30
262;DHT22;114;48.260;10.988;2023-03-26T14:02:35;7.90;29.90
262;DHT22;114;48.260;10.988;2023-03-26T14:10:47;9.00;17.40
262;DHT22;114;48.260;10.988;2023-03-26T14:14:22;9.60;15.50
262;DHT22;114;48.260;10.988;2023-03-26T14:16:22;10.20;4.20
262;DHT22;114;48.260;10.988;2023-03-26T14:21:40;11.10;2.30
262;DHT22;114;48.260;10.988;2023-03-26T14:30:30;11.40;1.00
262;DHT22;114;48.260;10.988;2023-03-26T14:41:31;12.40;1.00
262;DHT22;114;48.260;10.988;2023-03-26T14:47:22;12.70;1.00
262;DHT22;114;48.260;10.988;2023-03-26T14:52:53;12.80;1.00
262;DHT22;114;48.260;10.988;2023-03-26T15:40:28;10.60;1.00
262;DHT22;114;48.260;10.988;2023-03-26T15:43:08;10.60;1.00
262;DHT22;114;48.260;10.988;2023-03-26T15:53:45;10.30;1.00
262;DHT22;114;48.260;10.988;2023-03-26T15:56:50;10.20;1.00
262;DHT22;114;48.260;10.988;2023-03-26T16:05:29;10.30;1.00
262;DHT22;114;48.260;10.988;2023-03-26T16:10:50;10.10;1.00
262;DHT22;114;48.260;10.988;2023-03-26T16:13:39;9.80;1.00
262;DHT22;114;48.260;10.988;2023-03-26T16:18:54;9.60;1.00
262;DHT22;114;48.260;10.988;2023-03-26T16:21:37;9.60;1.30
262;DHT22;114;48.260;10.988;2023-03-26T16:29:33;9.50;4.60
262;DHT22;114;48.260;10.988;2023-03-26T16:32:32;9.50;4.30
262;DHT22;114;48.260;10.988;2023-03-26T16:40:32;9.30;7.90
262;DHT22;114;48.260;10.988;2023-03-26T16:51:26;9.00;10.50
262;DHT22;114;48.260;10.988;2023-03-26T17:05:35;8.60;13.30
262;DHT22;114;48.260;10.988;2023-03-26T17:08:20;8.60;15.20
262;DHT22;114;48.260;10.988;2023-03-26T17:14:16;8.40;19.30
262;DHT22;114;48.260;10.988;2023-03-26T17:16:48;8.30;21.10
262;DHT22;114;48.260;10.988;2023-03-26T17:19:52;8.30;23.40
262;DHT22;114;48.260;10.988;2023-03-26T17:27:52;7.80;49.80
262;DHT22;114;48.260;10.988;2023-03-26T17:33:34;7.50;58.30
262;DHT22;114;48.260;10.988;2023-03-26T17:41:01;7.20;58.10
262;DHT22;114;48.260;10.988;2023-03-26T17:43:43;7.10;52.20
262;DHT22;114;48.260;10.988;2023-03-26T17:46:43;7.00;45.10
262;DHT22;114;48.260;10.988;2023-03-26T17:51:58;6.90;44.30
262;DHT22;114;48.260;10.988;2023-03-26T17:54:39;6.80;39.70
262;DHT22;114;48.260;10.988;2023-03-26T17:57:15;6.70;42.40
262;DHT22;114;48.260;10.988;2023-03-26T17:59:45;6.70;40.10
262;DHT22;114;48.260;10.988;2023-03-26T18:02:37;6.60;43.40
262;DHT22;114;48.260;10.988;2023-03-26T18:05:12;6.60;43.90
262;DHT22;114;48.260;10.988;2023-03-26T18:14:13;6.50;37.00
262;DHT22;114;48.260;10.988;2023-03-26T18:16:43;6.40;36.00
262;DHT22;114;48.260;10.988;2023-03-26T18:19:13;6.40;39.30
262;DHT22;114;48.260;10.988;2023-03-26T18:21:48;6.30;38.10
262;DHT22;114;48.260;10.988;2023-03-26T18:24:34;6.30;38.00
262;DHT22;114;48.260;10.988;2023-03-26T18:27:05;6.20;39.20
262;DHT22;114;48.260;10.988;2023-03-26T18:29:33;6.10;39.90
262;DHT22;114;48.260;10.988;2023-03-26T18:32:18;6.00;41.40
262;DHT22;114;48.260;10.988;2023-03-26T18:34:57;6.00;43.40
262;DHT22;114;48.260;10.988;2023-03-26T18:37:34;6.00;43.70
262;DHT22;114;48.260;10.988;2023-03-26T18:40:20;5.90;46.10
262;DHT22;114;48.260;10.988;2023-03-26T18:42:50;5.80;46.20
262;DHT22;114;48.260;10.988;2023-03-26T18:48:21;5.80;45.70
262;DHT22;114;48.260;10.988;2023-03-26T18:50:56;5.80;48.40
262;DHT22;114;48.260;10.988;2023-03-26T18:53:26;5.80;49.90
262;DHT22;114;48.260;10.988;2023-03-26T18:55:55;5.80;48.40
262;DHT22;114;48.260;10.988;2023-03-26T19:00:51;5.80;51.90
262;DHT22;114;48.260;10.988;2023-03-26T19:03:23;5.90;53.00
262;DHT22;114;48.260;10.988;2023-03-26T19:05:54;5.80;53.90
262;DHT22;114;48.260;10.988;2023-03-26T19:08:22;5.80;55.20
262;DHT22;114;48.260;10.988;2023-03-26T19:10:49;5.80;54.70
262;DHT22;114;48.260;10.988;2023-03-26T19:13:16;5.80;54.10
262;DHT22;114;48.260;10.988;2023-03-26T19:15:44;5.80;55.50
262;DHT22;114;48.260;10.988;2023-03-26T19:18:16;5.90;56.20
262;DHT22;114;48.260;10.988;2023-03-26T19:20:43;5.90;56.40
262;DHT22;114;48.260;10.988;2023-03-26T19:23:18;5.90;55.40
262;DHT22;114;48.260;10.988;2023-03-26T19:25:48;5.90;56.70
262;DHT22;114;48.260;10.988;2023-03-26T19:31:09;5.90;56.30
262;DHT22;114;48.260;10.988;2023-03-26T19:33:39;5.90;56.30
262;DHT22;114;48.260;10.988;2023-03-26T19:36:16;5.90;57.40
262;DHT22;114;48.260;10.988;2023-03-26T19:38:53;5.90;57.00
262;DHT22;114;48.260;10.988;2023-03-26T19:41:24;5.90;57.40
262;DHT22;114;48.260;10.988;2023-03-26T19:43:53;5.90;56.10
262;DHT22;114;48.260;10.988;2023-03-26T19:46:24;5.90;56.10
262;DHT22;114;48.260;10.988;2023-03-26T19:48:53;5.90;54.20
262;DHT22;114;48.260;10.988;2023-03-26T19:51:22;5.90;55.30
262;DHT22;114;48.260;10.988;2023-03-26T19:53:54;5.90;51.10
262;DHT22;114;48.260;10.988;2023-03-26T19:56:20;5.90;47.60
262;DHT22;114;48.260;10.988;2023-03-26T19:58:47;5.80;45.20
262;DHT22;114;48.260;10.988;2023-03-26T20:01:26;5.80;46.40
262;DHT22;114;48.260;10.988;2023-03-26T20:03:59;5.80;44.00
262;DHT22;114;48.260;10.988;2023-03-26T20:06:25;5.80;44.70
262;DHT22;114;48.260;10.988;2023-03-26T20:08:54;5.80;48.40
262;DHT22;114;48.260;10.988;2023-03-26T20:11:26;5.80;49.80
262;DHT22;114;48.260;10.988;2023-03-26T20:13:58;5.60;51.80
262;DHT22;114;48.260;10.988;2023-03-26T20:18:53;5.50;52.00
262;DHT22;114;48.260;10.988;2023-03-26T20:21:22;5.50;48.20
262;DHT22;114;48.260;10.988;2023-03-26T20:23:48;5.50;49.10
262;DHT22;114;48.260;10.988;2023-03-26T20:26:18;5.40;48.80
262;DHT22;114;48.260;10.988;2023-03-26T20:28:44;5.40;51.50
262;DHT22;114;48.260;10.988;2023-03-26T20:31:16;5.40;49.00
262;DHT22;114;48.260;10.988;2023-03-26T20:33:44;5.40;48.70
262;DHT22;114;48.260;10.988;2023-03-26T20:36:13;5.40;48.10
262;DHT22;114;48.260;10.988;2023-03-26T20:38:40;5.30;47.90
262;DHT22;114;48.260;10.988;2023-03-26T20:41:09;5.30;48.40
262;DHT22;114;48.260;10.988;2023-03-26T20:43:36;5.30;48.60
262;DHT22;114;48.260;10.988;2023-03-26T20:46:02;5.20;47.90
262;DHT22;114;48.260;10.988;2023-03-26T20:48:28;5.20;47.30
262;DHT22;114;48.260;10.988;2023-03-26T20:50:54;5.20;47.90
262;DHT22;114;48.260;10.988;2023-03-26T20:53:21;5.10;46.80
262;DHT22;114;48.260;10.988;2023-03-26T20:55:48;5.00;47.70
262;DHT22;114;48.260;10.988;2023-03-26T20:58:16;5.00;48.80
262;DHT22;114;48.260;10.988;2023-03-26T21:00:47;4.90;49.30
262;DHT22;114;48.260;10.988;2023-03-26T21:03:14;4.90;49.20
262;DHT22;114;48.260;10.988;2023-03-26T21:05:41;4.90;47.60
262;DHT22;114;48.260;10.988;2023-03-26T21:08:16;5.00;47.60
262;DHT22;114;48.260;10.988;2023-03-26T21:10:43;5.00;45.20
262;DHT22;114;48.260;10.988;2023-03-26T21:13:35;5.00;46.10
262;DHT22;114;48.260;10.988;2023-03-26T21:16:02;5.00;44.30
262;DHT22;114;48.260;10.988;2023-03-26T21:18:28;5.00;44.00
262;DHT22;114;48.260;10.988;2023-03-26T21:21:09;5.00;43.50
262;DHT22;114;48.260;10.988;2023-03-26T21:23:42;5.00;44.60
262;DHT22;114;48.260;10.988;2023-03-26T21:26:28;4.90;44.50
262;DHT22;114;48.260;10.988;2023-03-26T21:28:56;4.90;46.40
262;DHT22;114;48.260;10.988;2023-03-26T21:31:24;4.80;48.20
262;DHT22;114;48.260;10.988;2023-03-26T21:33:51;4.80;47.60
262;DHT22;114;48.260;10.988;2023-03-26T21:36:17;4.80;48.90
262;DHT22;114;48.260;10.988;2023-03-26T21:38:44;4.70;48.90
262;DHT22;114;48.260;10.988;2023-03-26T21:41:32;4.70;48.40
262;DHT22;114;48.260;10.988;2023-03-26T21:44:02;4.80;48.60
262;DHT22;114;48.260;10.988;2023-03-26T21:46:28;4.80;48.40
262;DHT22;114;48.260;10.988;2023-03-26T21:48:54;4.70;49.80
262;DHT22;114;48.260;10.988;2023-03-26T21:51:20;4.70;49.50
262;DHT22;114;48.260;10.988;2023-03-26T21:53:46;4.80;49.50
262;DHT22;114;48.260;10.988;2023-03-26T21:59:11;4.70;49.90
262;DHT22;114;48.260;10.988;2023-03-26T22:01:50;4.70;50.20
262;DHT22;114;48.260;10.988;2023-03-26T22:04:36;4.80;50.30
262;DHT22;114;48.260;10.988;2023-03-26T22:09:37;4.80;50.90
262;DHT22;114;48.260;10.988;2023-03-26T22:12:03;4.80;50.10
262;DHT22;114;48.260;10.988;2023-03-26T22:14:29;4.80;50.70
262;DHT22;114;48.260;10.988;2023-03-26T22:16:55;4.80;51.30
262;DHT22;114;48.260;10.988;2023-03-26T22:19:21;4.80;50.90
262;DHT22;114;48.260;10.988;2023-03-26T22:21:47;4.80;50.70
262;DHT22;114;48.260;10.988;2023-03-26T22:24:12;4.80;50.20
262;DHT22;114;48.260;10.988;2023-03-26T22:26:38;4.80;50.50
262;DHT22;114;48.260;10.988;2023-03-26T22:29:04;4.70;51.10
262;DHT22;114;48.260;10.988;2023-03-26T22:31:30;4.70;51.60
262;DHT22;114;48.260;10.988;2023-03-26T22:33:55;4.70;52.10
262;DHT22;114;48.260;10.988;2023-03-26T22:36:21;4.60;52.50
262;DHT22;114;48.260;10.988;2023-03-26T22:38:51;4.60;52.90
262;DHT22;114;48.260;10.988;2023-03-26T22:41:17;4.60;54.00
262;DHT22;114;48.260;10.988;2023-03-26T22:43:43;4.50;55.60
262;DHT22;114;48.260;10.988;2023-03-26T22:46:10;4.50;56.30
262;DHT22;114;48.260;10.988;2023-03-26T22:48:37;4.50;55.60
262;DHT22;114;48.260;10.988;2023-03-26T22:51:06;4.50;55.50
262;DHT22;114;48.260;10.988;2023-03-26T22:53:33;4.50;57.40
262;DHT22;114;48.260;10.988;2023-03-26T22:55:59;4.40;55.50
262;DHT22;114;48.260;10.988;2023-03-26T22:58:26;4.40;56.40
262;DHT22;114;48.260;10.988;2023-03-26T23:01:04;4.30;58.30
262;DHT22;114;48.260;10.988;2023-03-26T23:03:31;4.30;57.90
262;DHT22;114;48.260;10.988;2023-03-26T23:05:58;4.20;59.60
262;DHT22;114;48.260;10.988;2023-03-26T23:08:26;4.20;60.50